Observation data for Childress on 11/10/2019      Previous  Date       Current Mesonet Observations  Soil Data  Daily Summary Page  Observations in Plain Language
KCXS 100600Z 20012KT 12/07 A3005 RMK A01 T01220073  RH  074%=      5-min Rain = 0
KCXS 100605Z 20011KT 12/07 A3005 RMK A01 T01210073  RH  074%=      5-min Rain = 0
KCXS 100610Z 20011KT 12/07 A3005 RMK A01 T01190073  RH  075%=      5-min Rain = 0
KCXS 100615Z 20011KT 12/07 A3004 RMK A01 T01180072  RH  075%=      5-min Rain = 0
KCXS 100620Z 20011KT 12/07 A3004 RMK A01 T01180073  RH  076%=      5-min Rain = 0
KCXS 100625Z 20011KT 12/07 A3004 RMK A01 T01180073  RH  076%=      5-min Rain = 0
KCXS 100630Z 20011KT 12/07 A3004 RMK A01 T01190074  RH  076%=      5-min Rain = 0
KCXS 100635Z 21010KT 12/07 A3004 RMK A01 T01190074  RH  076%=      5-min Rain = 0
KCXS 100640Z 21010KT 12/08 A3004 RMK A01 T01200075  RH  076%=      5-min Rain = 0
KCXS 100645Z 21010KT 12/07 A3004 RMK A01 T01180074  RH  077%=      5-min Rain = 0
KCXS 100650Z 21010KT 12/07 A3004 RMK A01 T01150073  RH  077%=      5-min Rain = 0
KCXS 100655Z 21010KT 11/07 A3004 RMK A01 T01120072  RH  078%=      5-min Rain = 0
KCXS 100700Z 21010KT 11/07 A3004 RMK A01 T01110072  RH  079%=      5-min Rain = 0
KCXS 100705Z 21011KT 11/07 A3004 RMK A01 T01120073  RH  079%=      5-min Rain = 0
KCXS 100710Z 22011KT 11/07 A3004 RMK A01 T01130074  RH  079%=      5-min Rain = 0
KCXS 100715Z 22011KT 11/08 A3004 RMK A01 T01140075  RH  079%=      5-min Rain = 0
KCXS 100720Z 22011KT 12/08 A3004 RMK A01 T01150076  RH  079%=      5-min Rain = 0
KCXS 100725Z 22011KT 11/08 A3004 RMK A01 T01140076  RH  079%=      5-min Rain = 0
KCXS 100730Z 22010KT 11/08 A3004 RMK A01 T01120075  RH  080%=      5-min Rain = 0
KCXS 100735Z 22010KT 11/08 A3003 RMK A01 T01100075  RH  081%=      5-min Rain = 0
KCXS 100740Z 21010KT 11/07 A3003 RMK A01 T01080074  RH  082%=      5-min Rain = 0
KCXS 100745Z 20010KT 11/07 A3003 RMK A01 T01060074  RH  083%=      5-min Rain = 0
KCXS 100750Z 21010KT 11/08 A3003 RMK A01 T01070075  RH  083%=      5-min Rain = 0
KCXS 100755Z 21009KT 11/07 A3003 RMK A01 T01050074  RH  083%=      5-min Rain = 0
KCXS 100800Z 21009KT 10/07 A3003 RMK A01 T01030074  RH  084%=      5-min Rain = 0
KCXS 100805Z 21009KT 10/07 A3003 RMK A01 T01020073  RH  085%=      5-min Rain = 0
KCXS 100810Z 21009KT 10/07 A3003 RMK A01 T01000073  RH  085%=      5-min Rain = 0
KCXS 100815Z 20009KT 10/07 A3003 RMK A01 T00990073  RH  086%=      5-min Rain = 0
KCXS 100820Z 21009KT 10/07 A3003 RMK A01 T00980072  RH  086%=      5-min Rain = 0
KCXS 100825Z 21008KT 10/07 A3002 RMK A01 T00970072  RH  087%=      5-min Rain = 0
KCXS 100830Z 21008KT 10/07 A3002 RMK A01 T00970072  RH  087%=      5-min Rain = 0
KCXS 100835Z 21008KT 10/07 A3002 RMK A01 T00980073  RH  087%=      5-min Rain = 0
KCXS 100840Z 21008KT 10/07 A3002 RMK A01 T01000074  RH  087%=      5-min Rain = 0
KCXS 100845Z 21009KT 10/08 A3002 RMK A01 T01010075  RH  086%=      5-min Rain = 0
KCXS 100850Z 20009KT 10/08 A3002 RMK A01 T01030077  RH  086%=      5-min Rain = 0
KCXS 100855Z 21008KT 10/08 A3002 RMK A01 T01030077  RH  086%=      5-min Rain = 0
KCXS 100900Z 21008KT 10/08 A3002 RMK A01 T01030077  RH  086%=      5-min Rain = 0
KCXS 100905Z 21008KT 10/08 A3002 RMK A01 T01030077  RH  086%=      5-min Rain = 0
KCXS 100910Z 21007KT 10/08 A3002 RMK A01 T01000075  RH  087%=      5-min Rain = 0
KCXS 100915Z 20007KT 10/08 A3001 RMK A01 T00990075  RH  088%=      5-min Rain = 0
KCXS 100920Z 20006KT 10/07 A3001 RMK A01 T00960074  RH  088%=      5-min Rain = 0
KCXS 100925Z 20007KT 10/07 A3001 RMK A01 T00950074  RH  089%=      5-min Rain = 0
KCXS 100930Z 21006KT 09/07 A3002 RMK A01 T00940074  RH  089%=      5-min Rain = 0
KCXS 100935Z 21005KT 09/07 A3001 RMK A01 T00930073  RH  090%=      5-min Rain = 0
KCXS 100940Z 20004KT 09/07 A3001 RMK A01 T00910072  RH  090%=      5-min Rain = 0
KCXS 100945Z 20004KT 09/07 A3001 RMK A01 T00900071  RH  090%=      5-min Rain = 0
KCXS 100950Z 25003KT 09/07 A3001 RMK A01 T00890070  RH  090%=      5-min Rain = 0
KCXS 100955Z 26004KT 09/07 A3001 RMK A01 T00850068  RH  092%=      5-min Rain = 0
KCXS 101000Z 25005KT 09/07 A3001 RMK A01 T00850069  RH  092%=      5-min Rain = 0
KCXS 101005Z 24005KT 09/07 A3001 RMK A01 T00870070  RH  092%=      5-min Rain = 0
KCXS 101010Z 25005KT 09/07 A3001 RMK A01 T00870071  RH  092%=      5-min Rain = 0
KCXS 101015Z 24005KT 09/07 A30 RMK A01 T00880071  RH  092%=      5-min Rain = 0
KCXS 101020Z 23006KT 09/07 A30 RMK A01 T00920073  RH  090%=      5-min Rain = 0
KCXS 101025Z 23006KT 09/07 A30 RMK A01 T00940073  RH  089%=      5-min Rain = 0
KCXS 101030Z 23006KT 09/07 A30 RMK A01 T00920072  RH  089%=      5-min Rain = 0
KCXS 101035Z 22006KT 09/07 A30 RMK A01 T00900071  RH  090%=      5-min Rain = 0
KCXS 101040Z 21006KT 09/07 A30 RMK A01 T00890070  RH  091%=      5-min Rain = 0
KCXS 101045Z 20005KT 09/07 A30 RMK A01 T00860068  RH  090%=      5-min Rain = 0
KCXS 101050Z 17004KT 08/07 A30 RMK A01 T00820065  RH  092%=      5-min Rain = 0
KCXS 101055Z 15003KT 08/07 A30 RMK A01 T00800066  RH  093%=      5-min Rain = 0
KCXS 101100Z 15003KT 08/06 A2999 RMK A01 T00770064  RH  094%=      5-min Rain = 0
KCXS 101105Z 16003KT 08/06 A2999 RMK A01 T00760064  RH  095%=      5-min Rain = 0
KCXS 101110Z 18004KT 08/06 A2999 RMK A01 T00750064  RH  095%=      5-min Rain = 0
KCXS 101115Z 19004KT 07/06 A2999 RMK A01 T00740063  RH  095%=      5-min Rain = 0
KCXS 101120Z 18005KT 07/06 A2999 RMK A01 T00720060  RH  094%=      5-min Rain = 0
KCXS 101125Z 17007KT 07/06 A2999 RMK A01 T00690059  RH  095%=      5-min Rain = 0
KCXS 101130Z 17006KT 07/06 A2999 RMK A01 T00670056  RH  095%=      5-min Rain = 0
KCXS 101135Z 18008KT 07/06 A2999 RMK A01 T00670059  RH  097%=      5-min Rain = 0
KCXS 101140Z 19009KT 08/07 A2999 RMK A01 T00770069  RH  097%=      5-min Rain = 0
KCXS 101145Z 19009KT 08/07 A2999 RMK A01 T00840071  RH  094%=      5-min Rain = 0
KCXS 101150Z 19010KT 09/07 A2999 RMK A01 T00870072  RH  093%=      5-min Rain = 0
KCXS 101155Z 19010KT 09/07 A2999 RMK A01 T00890073  RH  092%=      5-min Rain = 0
KCXS 101200Z 19011KT 09/07 A2999 RMK A01 T00920074  RH  091%=      5-min Rain = 0
KCXS 101205Z 19011KT 09/07 A2998 RMK A01 T00920073  RH  090%=      5-min Rain = 0
KCXS 101210Z 19011KT 09/07 A2999 RMK A01 T00940074  RH  090%=      5-min Rain = 0
KCXS 101215Z 19011KT 09/07 A2999 RMK A01 T00940074  RH  090%=      5-min Rain = 0
KCXS 101220Z 19011KT 10/08 A2999 RMK A01 T00950075  RH  090%=      5-min Rain = 0
KCXS 101225Z 19010KT 10/08 A2999 RMK A01 T00970076  RH  089%=      5-min Rain = 0
KCXS 101230Z 19010KT 10/08 A2998 RMK A01 T00960075  RH  089%=      5-min Rain = 0
KCXS 101235Z 20011KT 10/07 A2999 RMK A01 T00950074  RH  090%=      5-min Rain = 0
KCXS 101240Z 20010KT 10/07 A2999 RMK A01 T00950074  RH  089%=      5-min Rain = 0
KCXS 101245Z 20011KT 10/08 A2999 RMK A01 T00970075  RH  089%=      5-min Rain = 0
KCXS 101250Z 20011KT 10/08 A2999 RMK A01 T00980075  RH  088%=      5-min Rain = 0
KCXS 101255Z 20011KT 10/08 A2999 RMK A01 T00980076  RH  089%=      5-min Rain = 0
KCXS 101300Z 19010KT 10/08 A2999 RMK A01 T01000077  RH  088%=      5-min Rain = 0
KCXS 101305Z 19009KT 10/08 A2999 RMK A01 T01010077  RH  088%=      5-min Rain = 0
KCXS 101310Z 20010KT 10/08 A2998 RMK A01 T01010078  RH  088%=      5-min Rain = 0
KCXS 101315Z 20010KT 10/08 A2998 RMK A01 T01010078  RH  088%=      5-min Rain = 0
KCXS 101320Z 20010KT 10/08 A2998 RMK A01 T01010078  RH  088%=      5-min Rain = 0
KCXS 101325Z 19010KT 10/08 A2998 RMK A01 T01010078  RH  088%=      5-min Rain = 0
KCXS 101330Z 20010KT 10/08 A2998 RMK A01 T01010078  RH  088%=      5-min Rain = 0
KCXS 101335Z 20010KT 10/08 A2998 RMK A01 T01010078  RH  088%=      5-min Rain = 0
KCXS 101340Z 20010KT 10/08 A2998 RMK A01 T01010079  RH  088%=      5-min Rain = 0
KCXS 101345Z 20010KT 10/08 A2998 RMK A01 T01020079  RH  088%=      5-min Rain = 0
KCXS 101350Z 20010KT 11/08 A2998 RMK A01 T01050081  RH  088%=      5-min Rain = 0
KCXS 101355Z 20011KT 11/08 A2998 RMK A01 T01080083  RH  087%=      5-min Rain = 0
KCXS 101400Z 20011KT 11/08 A2998 RMK A01 T01110084  RH  086%=      5-min Rain = 0
KCXS 101405Z 20010KT 11/09 A2998 RMK A01 T01140086  RH  085%=      5-min Rain = 0
KCXS 101410Z 19009KT 12/09 A2998 RMK A01 T01160086  RH  084%=      5-min Rain = 0
KCXS 101415Z 19009KT 12/09 A2999 RMK A01 T01180087  RH  084%=      5-min Rain = 0
KCXS 101420Z 19009KT 12/09 A2999 RMK A01 T01190087  RH  083%=      5-min Rain = 0
KCXS 101425Z 20009KT 12/09 A2999 RMK A01 T01210088  RH  082%=      5-min Rain = 0
KCXS 101430Z 20010KT 12/09 A2999 RMK A01 T01230088  RH  082%=      5-min Rain = 0
KCXS 101435Z 20009KT 13/09 A2999 RMK A01 T01250089  RH  081%=      5-min Rain = 0
KCXS 101440Z 20009KT 13/09 A2999 RMK A01 T01270089  RH  080%=      5-min Rain = 0
KCXS 101445Z 20009KT 13/09 A2999 RMK A01 T01290090  RH  079%=      5-min Rain = 0
KCXS 101450Z 20009KT 13/09 A2999 RMK A01 T01310090  RH  079%=      5-min Rain = 0
KCXS 101455Z 20009KT 13/09 A2998 RMK A01 T01330091  RH  078%=      5-min Rain = 0
KCXS 101500Z 20007KT 14/09 A2998 RMK A01 T01370091  RH  076%=      5-min Rain = 0
KCXS 101505Z 19007KT 14/09 A2998 RMK A01 T01390092  RH  076%=      5-min Rain = 0
KCXS 101510Z 18007KT 14/09 A2998 RMK A01 T01420093  RH  074%=      5-min Rain = 0
KCXS 101515Z 19008KT 15/09 A2998 RMK A01 T01450093  RH  073%=      5-min Rain = 0
KCXS 101520Z 19007KT 15/09 A2998 RMK A01 T01480094  RH  072%=      5-min Rain = 0
KCXS 101525Z 19008KT 15/09 A2998 RMK A01 T01500094  RH  072%=      5-min Rain = 0
KCXS 101530Z 19008KT 15/09 A2998 RMK A01 T01520094  RH  071%=      5-min Rain = 0
KCXS 101535Z 20009KT 15/10 A2998 RMK A01 T01520095  RH  071%=      5-min Rain = 0
KCXS 101540Z 20009KT 15/10 A2998 RMK A01 T01540095  RH  070%=      5-min Rain = 0
KCXS 101545Z 20009KT 16/10 A2998 RMK A01 T01580096  RH  069%=      5-min Rain = 0
KCXS 101550Z 19008KT 16/10 A2998 RMK A01 T01610097  RH  068%=      5-min Rain = 0
KCXS 101555Z 20009KT 16/10 A2997 RMK A01 T01600097  RH  068%=      5-min Rain = 0
KCXS 101600Z 19008KT 16/10 A2997 RMK A01 T01640098  RH  067%=      5-min Rain = 0
KCXS 101605Z 20006KT 17/10 A2997 RMK A01 T01680100  RH  066%=      5-min Rain = 0
KCXS 101610Z 21008KT 17/10 A2996 RMK A01 T01730099  RH  064%=      5-min Rain = 0
KCXS 101615Z 21008KT 17/10 A2996 RMK A01 T01730100  RH  064%=      5-min Rain = 0
KCXS 101620Z 21009KT 18/10 A2996 RMK A01 T01780101  RH  062%=      5-min Rain = 0
KCXS 101625Z 21008KT 18/10 A2996 RMK A01 T01820101  RH  061%=      5-min Rain = 0
KCXS 101630Z 22008KT 18/10 A2996 RMK A01 T01840102  RH  061%=      5-min Rain = 0
KCXS 101635Z 21008KT 19/10 A2996 RMK A01 T01870103  RH  060%=      5-min Rain = 0
KCXS 101640Z 20006KT 19/10 A2996 RMK A01 T01930104  RH  058%=      5-min Rain = 0
KCXS 101645Z 19007KT 19/11 A2996 RMK A01 T01940105  RH  058%=      5-min Rain = 0
KCXS 101650Z 20007KT 20/11 A2996 RMK A01 T01960106  RH  058%=      5-min Rain = 0
KCXS 101655Z 20008KT 20/11 A2996 RMK A01 T01970106  RH  057%=      5-min Rain = 0
KCXS 101700Z 19007KT 20/11 A2996 RMK A01 T01990107  RH  057%=      5-min Rain = 0
KCXS 101705Z 20007KT 20/11 A2995 RMK A01 T02010107  RH  057%=      5-min Rain = 0
KCXS 101710Z 18008KT 20/11 A2995 RMK A01 T02020108  RH  057%=      5-min Rain = 0
KCXS 101715Z 18009KT 21/11 A2995 RMK A01 T02050108  RH  056%=      5-min Rain = 0
KCXS 101720Z 18008KT 20/11 A2995 RMK A01 T02040109  RH  056%=      5-min Rain = 0
KCXS 101725Z 17008G13KT 21/11 A2995 RMK A01 T02090110  RH  055%=      5-min Rain = 0
KCXS 101730Z 19009KT 21/11 A2994 RMK A01 T02110111  RH  055%=      5-min Rain = 0
KCXS 101735Z 19009KT 21/11 A2994 RMK A01 T02110112  RH  055%=      5-min Rain = 0
KCXS 101740Z 19010KT 22/11 A2994 RMK A01 T02160114  RH  054%=      5-min Rain = 0
KCXS 101745Z 18009KT 22/12 A2993 RMK A01 T02180115  RH  054%=      5-min Rain = 0
KCXS 101750Z 18009KT 22/12 A2993 RMK A01 T02190115  RH  054%=      5-min Rain = 0
KCXS 101755Z 19009KT 22/12 A2993 RMK A01 T02240117  RH  052%=      5-min Rain = 0
KCXS 101800Z 19008G13KT 23/12 A2993 RMK A01 T02270117  RH  052%=      5-min Rain = 0
KCXS 101805Z 18008KT 23/12 A2992 RMK A01 T02280118  RH  051%=      5-min Rain = 0
KCXS 101810Z 17008KT 23/12 A2992 RMK A01 T02310117  RH  051%=      5-min Rain = 0
KCXS 101815Z 17008KT 23/12 A2991 RMK A01 T02310118  RH  051%=      5-min Rain = 0
KCXS 101820Z 17010KT 23/12 A2991 RMK A01 T02340118  RH  050%=      5-min Rain = 0
KCXS 101825Z 17010KT 23/12 A299 RMK A01 T02320118  RH  051%=      5-min Rain = 0
KCXS 101830Z 17010KT 24/12 A299 RMK A01 T02350119  RH  050%=      5-min Rain = 0
KCXS 101835Z 17009KT 24/12 A299 RMK A01 T02400120  RH  049%=      5-min Rain = 0
KCXS 101840Z 17011KT 24/12 A2989 RMK A01 T02400119  RH  049%=      5-min Rain = 0
KCXS 101845Z 18011KT 25/12 A2988 RMK A01 T02460119  RH  047%=      5-min Rain = 0
KCXS 101850Z 18010KT 25/12 A2988 RMK A01 T02510120  RH  045%=      5-min Rain = 0
KCXS 101855Z 18009G14KT 26/12 A2988 RMK A01 T02550119  RH  044%=      5-min Rain = 0
KCXS 101900Z 18011G17KT 25/12 A2987 RMK A01 T02530118  RH  044%=      5-min Rain = 0
KCXS 101905Z 18009G14KT 25/12 A2987 RMK A01 T02520120  RH  045%=      5-min Rain = 0
KCXS 101910Z 17010G17KT 26/12 A2987 RMK A01 T02590120  RH  043%=      5-min Rain = 0
KCXS 101915Z 17011KT 26/12 A2986 RMK A01 T02620120  RH  043%=      5-min Rain = 0
KCXS 101920Z 16010KT 26/12 A2986 RMK A01 T02620118  RH  042%=      5-min Rain = 0
KCXS 101925Z 17011KT 26/12 A2985 RMK A01 T02630117  RH  042%=      5-min Rain = 0
KCXS 101930Z 18011KT 27/11 A2984 RMK A01 T02690108  RH  038%=      5-min Rain = 0
KCXS 101935Z 18011KT 26/11 A2984 RMK A01 T02610108  RH  039%=      5-min Rain = 0
KCXS 101940Z 18011KT 26/11 A2984 RMK A01 T02600110  RH  040%=      5-min Rain = 0
KCXS 101945Z 18009G14KT 27/12 A2983 RMK A01 T02690116  RH  040%=      5-min Rain = 0
KCXS 101950Z 17008G13KT 28/12 A2983 RMK A01 T02770116  RH  038%=      5-min Rain = 0
KCXS 101955Z 18011G17KT 28/11 A2983 RMK A01 T02790111  RH  036%=      5-min Rain = 0
KCXS 102000Z 19011KT 27/11 A2983 RMK A01 T02730107  RH  037%=      5-min Rain = 0
KCXS 102005Z 18011G18KT 26/11 A2983 RMK A01 T02620108  RH  040%=      5-min Rain = 0
KCXS 102010Z 18012KT 26/11 A2982 RMK A01 T02610113  RH  041%=      5-min Rain = 0
KCXS 102015Z 18010KT 26/11 A2982 RMK A01 T02570113  RH  042%=      5-min Rain = 0
KCXS 102020Z 19009KT 26/11 A2982 RMK A01 T02620110  RH  040%=      5-min Rain = 0
KCXS 102025Z 20010KT 27/11 A2982 RMK A01 T02740105  RH  036%=      5-min Rain = 0
KCXS 102030Z 19010KT 28/10 A2982 RMK A01 T02820101  RH  033%=      5-min Rain = 0
KCXS 102035Z 19011KT 29/11 A2981 RMK A01 T02850105  RH  034%=      5-min Rain = 0
KCXS 102040Z 17012G17KT 28/11 A2981 RMK A01 T02820109  RH  035%=      5-min Rain = 0
KCXS 102045Z 18012KT 28/11 A2981 RMK A01 T02780105  RH  035%=      5-min Rain = 0
KCXS 102050Z 18013KT 28/10 A2981 RMK A01 T02780103  RH  035%=      5-min Rain = 0
KCXS 102055Z 18013G18KT 28/11 A2981 RMK A01 T02760106  RH  036%=      5-min Rain = 0
KCXS 102100Z 18013G18KT 27/12 A2981 RMK A01 T02740118  RH  039%=      5-min Rain = 0
KCXS 102105Z 16016G21KT 27/12 A2981 RMK A01 T02680118  RH  041%=      5-min Rain = 0
KCXS 102110Z 16016G21KT 26/12 A2981 RMK A01 T02630118  RH  042%=      5-min Rain = 0
KCXS 102115Z 18016G21KT 26/12 A2981 RMK A01 T02620117  RH  042%=      5-min Rain = 0
KCXS 102120Z 17015KT 26/12 A2981 RMK A01 T02610118  RH  042%=      5-min Rain = 0
KCXS 102125Z 17016KT 26/12 A2981 RMK A01 T02580117  RH  043%=      5-min Rain = 0
KCXS 102130Z 17016KT 26/12 A298 RMK A01 T02570118  RH  043%=      5-min Rain = 0
KCXS 102135Z 17016G22KT 26/12 A298 RMK A01 T02570116  RH  043%=      5-min Rain = 0
KCXS 102140Z 17015G21KT 26/12 A298 RMK A01 T02560116  RH  043%=      5-min Rain = 0
KCXS 102145Z 17015G20KT 26/12 A298 RMK A01 T02550116  RH  043%=      5-min Rain = 0
KCXS 102150Z 17015KT 25/12 A298 RMK A01 T02540115  RH  043%=      5-min Rain = 0
KCXS 102155Z 17017G22KT 25/12 A298 RMK A01 T02530115  RH  043%=      5-min Rain = 0
KCXS 102200Z 17015G21KT 25/12 A298 RMK A01 T02510115  RH  044%=      5-min Rain = 0
KCXS 102205Z 18015G20KT 25/12 A298 RMK A01 T02510115  RH  044%=      5-min Rain = 0
KCXS 102210Z 17015KT 25/12 A298 RMK A01 T02490115  RH  045%=      5-min Rain = 0
KCXS 102215Z 17014KT 25/12 A2979 RMK A01 T02480115  RH  045%=      5-min Rain = 0
KCXS 102220Z 17014G19KT 25/12 A2979 RMK A01 T02470116  RH  046%=      5-min Rain = 0
KCXS 102225Z 18014G19KT 25/12 A2979 RMK A01 T02470116  RH  046%=      5-min Rain = 0
KCXS 102230Z 18016G21KT 25/12 A2979 RMK A01 T02460116  RH  046%=      5-min Rain = 0
KCXS 102235Z 17014G19KT 24/12 A2978 RMK A01 T02430115  RH  046%=      5-min Rain = 0
KCXS 102240Z 17016G21KT 24/12 A2978 RMK A01 T02410115  RH  047%=      5-min Rain = 0
KCXS 102245Z 17014KT 24/12 A2978 RMK A01 T02400115  RH  047%=      5-min Rain = 0
KCXS 102250Z 17014G20KT 24/12 A2978 RMK A01 T02380116  RH  048%=      5-min Rain = 0
KCXS 102255Z 17014KT 24/12 A2978 RMK A01 T02370116  RH  048%=      5-min Rain = 0
KCXS 102300Z 17014G19KT 24/12 A2978 RMK A01 T02370116  RH  049%=      5-min Rain = 0
KCXS 102305Z 17014KT 24/12 A2978 RMK A01 T02360117  RH  049%=      5-min Rain = 0
KCXS 102310Z 18015G22KT 24/12 A2978 RMK A01 T02350116  RH  049%=      5-min Rain = 0
KCXS 102315Z 17015G20KT 23/12 A2978 RMK A01 T02330117  RH  050%=      5-min Rain = 0
KCXS 102320Z 17014KT 23/12 A2978 RMK A01 T02310118  RH  051%=      5-min Rain = 0
KCXS 102325Z 17014G19KT 23/12 A2978 RMK A01 T02300119  RH  052%=      5-min Rain = 0
KCXS 102330Z 18015KT 23/12 A2978 RMK A01 T02280121  RH  053%=      5-min Rain = 0
KCXS 102335Z 17013KT 23/12 A2978 RMK A01 T02270121  RH  053%=      5-min Rain = 0
KCXS 102340Z 17012KT 22/12 A2978 RMK A01 T02240121  RH  054%=      5-min Rain = 0
KCXS 102345Z 17013KT 22/12 A2978 RMK A01 T02230121  RH  054%=      5-min Rain = 0
KCXS 102350Z 18014KT 22/12 A2978 RMK A01 T02230121  RH  055%=      5-min Rain = 0
KCXS 102355Z 18014KT 22/12 A2978 RMK A01 T02230121  RH  055%=      5-min Rain = 0
KCXS 110000Z 18014KT 22/12 A2978 RMK A01 T02220121  RH  055%=      5-min Rain = 0
KCXS 110005Z 18014G19KT 22/12 A2978 RMK A01 T02210122  RH  055%=      5-min Rain = 0
KCXS 110010Z 18014KT 22/12 A2978 RMK A01 T02200122  RH  056%=      5-min Rain = 0
KCXS 110015Z 18013KT 22/12 A2978 RMK A01 T02190122  RH  056%=      5-min Rain = 0
KCXS 110020Z 17013KT 22/12 A2978 RMK A01 T02170122  RH  057%=      5-min Rain = 0
KCXS 110025Z 17013KT 22/12 A2978 RMK A01 T02160123  RH  057%=      5-min Rain = 0
KCXS 110030Z 17012KT 21/12 A2978 RMK A01 T02140123  RH  058%=      5-min Rain = 0
KCXS 110035Z 17012KT 21/12 A2978 RMK A01 T02120123  RH  059%=      5-min Rain = 0
KCXS 110040Z 17012KT 21/12 A2978 RMK A01 T02110124  RH  060%=      5-min Rain = 0
KCXS 110045Z 17012KT 21/12 A2979 RMK A01 T02100124  RH  060%=      5-min Rain = 0
KCXS 110050Z 17011KT 21/13 A2979 RMK A01 T02080125  RH  061%=      5-min Rain = 0
KCXS 110055Z 16010KT 21/13 A2979 RMK A01 T02050125  RH  062%=      5-min Rain = 0
KCXS 110100Z 16009KT 20/13 A2979 RMK A01 T02020125  RH  063%=      5-min Rain = 0
KCXS 110105Z 16009KT 20/12 A2979 RMK A01 T01980124  RH  065%=      5-min Rain = 0
KCXS 110110Z 16010KT 20/13 A2979 RMK A01 T01960125  RH  066%=      5-min Rain = 0
KCXS 110115Z 16010KT 20/13 A2979 RMK A01 T01950126  RH  067%=      5-min Rain = 0
KCXS 110120Z 16010KT 19/13 A2979 RMK A01 T01940126  RH  067%=      5-min Rain = 0
KCXS 110125Z 16010KT 19/13 A2979 RMK A01 T01920127  RH  068%=      5-min Rain = 0
KCXS 110130Z 16010KT 19/13 A2979 RMK A01 T01900127  RH  069%=      5-min Rain = 0
KCXS 110135Z 16010KT 19/13 A2979 RMK A01 T01900128  RH  070%=      5-min Rain = 0
KCXS 110140Z 16009KT 19/13 A2979 RMK A01 T01880128  RH  071%=      5-min Rain = 0
KCXS 110145Z 15009KT 19/13 A2979 RMK A01 T01860128  RH  072%=      5-min Rain = 0
KCXS 110150Z 15009KT 18/13 A2979 RMK A01 T01830128  RH  073%=      5-min Rain = 0
KCXS 110155Z 15009KT 18/13 A2979 RMK A01 T01820129  RH  074%=      5-min Rain = 0
KCXS 110200Z 14009KT 18/13 A2979 RMK A01 T01810129  RH  075%=      5-min Rain = 0
KCXS 110205Z 14009KT 18/13 A2979 RMK A01 T01800129  RH  075%=      5-min Rain = 0
KCXS 110210Z 14009KT 18/13 A2979 RMK A01 T01790129  RH  076%=      5-min Rain = 0
KCXS 110215Z 14010KT 18/13 A2979 RMK A01 T01770129  RH  076%=      5-min Rain = 0
KCXS 110220Z 15010KT 18/13 A2979 RMK A01 T01750129  RH  077%=      5-min Rain = 0
KCXS 110225Z 15010KT 17/13 A2979 RMK A01 T01740129  RH  078%=      5-min Rain = 0
KCXS 110230Z 14010KT 17/13 A2978 RMK A01 T01730129  RH  078%=      5-min Rain = 0
KCXS 110235Z 15010KT 17/13 A2978 RMK A01 T01720129  RH  079%=      5-min Rain = 0
KCXS 110240Z 15010KT 17/13 A2978 RMK A01 T01710129  RH  079%=      5-min Rain = 0
KCXS 110245Z 16010KT 17/13 A2978 RMK A01 T01710129  RH  079%=      5-min Rain = 0
KCXS 110250Z 16009KT 17/13 A2978 RMK A01 T01690128  RH  080%=      5-min Rain = 0
KCXS 110255Z 16009KT 17/13 A2978 RMK A01 T01660127  RH  081%=      5-min Rain = 0
KCXS 110300Z 16010KT 17/13 A2978 RMK A01 T01660127  RH  081%=      5-min Rain = 0
KCXS 110305Z 17010KT 17/13 A2978 RMK A01 T01650128  RH  082%=      5-min Rain = 0
KCXS 110310Z 17010KT 17/13 A2978 RMK A01 T01650128  RH  082%=      5-min Rain = 0
KCXS 110315Z 17010KT 17/13 A2978 RMK A01 T01680130  RH  081%=      5-min Rain = 0
KCXS 110320Z 18011KT 17/13 A2978 RMK A01 T01710131  RH  080%=      5-min Rain = 0
KCXS 110325Z 18011KT 17/13 A2978 RMK A01 T01740132  RH  079%=      5-min Rain = 0
KCXS 110330Z 18011KT 18/13 A2978 RMK A01 T01750132  RH  079%=      5-min Rain = 0
KCXS 110335Z 18011KT 18/13 A2978 RMK A01 T01750132  RH  079%=      5-min Rain = 0
KCXS 110340Z 18011KT 17/13 A2977 RMK A01 T01740131  RH  079%=      5-min Rain = 0
KCXS 110345Z 17010KT 17/13 A2977 RMK A01 T01740131  RH  079%=      5-min Rain = 0
KCXS 110350Z 17010KT 17/13 A2977 RMK A01 T01730131  RH  079%=      5-min Rain = 0
KCXS 110355Z 18011KT 17/13 A2977 RMK A01 T01730130  RH  079%=      5-min Rain = 0
KCXS 110400Z 18011KT 17/13 A2977 RMK A01 T01720130  RH  079%=      5-min Rain = 0
KCXS 110405Z 18011KT 17/13 A2977 RMK A01 T01720130  RH  079%=      5-min Rain = 0
KCXS 110410Z 18011KT 17/13 A2977 RMK A01 T01710130  RH  080%=      5-min Rain = 0
KCXS 110415Z 18011KT 17/13 A2977 RMK A01 T01710130  RH  080%=      5-min Rain = 0
KCXS 110420Z 18011KT 17/13 A2977 RMK A01 T01710130  RH  080%=      5-min Rain = 0
KCXS 110425Z 18010KT 17/13 A2977 RMK A01 T01700131  RH  080%=      5-min Rain = 0
KCXS 110430Z 18010KT 17/13 A2978 RMK A01 T01700130  RH  081%=      5-min Rain = 0
KCXS 110435Z 18010KT 17/13 A2978 RMK A01 T01690130  RH  081%=      5-min Rain = 0
KCXS 110440Z 18011KT 17/13 A2977 RMK A01 T01680130  RH  082%=      5-min Rain = 0
KCXS 110445Z 18013KT 17/13 A2977 RMK A01 T01660130  RH  082%=      5-min Rain = 0
KCXS 110450Z 18011KT 17/13 A2977 RMK A01 T01660130  RH  082%=      5-min Rain = 0
KCXS 110455Z 19010KT 17/13 A2977 RMK A01 T01670130  RH  082%=      5-min Rain = 0
KCXS 110500Z 19010KT 17/13 A2977 RMK A01 T01680130  RH  081%=      5-min Rain = 0
KCXS 110505Z 19010KT 17/13 A2977 RMK A01 T01680130  RH  081%=      5-min Rain = 0
KCXS 110510Z 19010KT 17/13 A2977 RMK A01 T01690131  RH  081%=      5-min Rain = 0
KCXS 110515Z 20011KT 17/13 A2977 RMK A01 T01690131  RH  082%=      5-min Rain = 0
KCXS 110520Z 20012KT 17/13 A2977 RMK A01 T01680131  RH  082%=      5-min Rain = 0
KCXS 110525Z 19011KT 17/13 A2977 RMK A01 T01680131  RH  082%=      5-min Rain = 0
KCXS 110530Z 19011KT 17/13 A2977 RMK A01 T01660130  RH  083%=      5-min Rain = 0
KCXS 110535Z 19011KT 16/13 A2977 RMK A01 T01630130  RH  084%=      5-min Rain = 0
KCXS 110540Z 20011KT 16/13 A2977 RMK A01 T01640130  RH  084%=      5-min Rain = 0
KCXS 110545Z 20011KT 16/13 A2977 RMK A01 T01640130  RH  084%=      5-min Rain = 0
KCXS 110550Z 21010KT 17/13 A2977 RMK A01 T01650131  RH  083%=      5-min Rain = 0
KCXS 110555Z 21010KT 16/13 A2977 RMK A01 T01620130  RH  084%=      5-min Rain = 0

Page generated in 0.0151 seconds.